Time;durP1;ratioP1;P1;durP2;ratioP2;P2;SDS_P1;SDS_P2;PMS_P1;PMS_P2;Temp;Humidity;BMP_temperature;BMP_pressure;BME280_temperature;BME280_humidity;BME280_pressure;Samples;Min_cycle;Max_cycle;Signal;HPM_P1;HPM_P2
2022/12/06 00:01:16;;;;;;;29.00;22.43;;;3.90;99.90;;;;;;5091957;28;20454;-76
2022/12/06 00:03:46;;;;;;;31.80;22.53;;;3.90;99.90;;;;;;5091626;28;20459;-77
2022/12/06 00:06:17;;;;;;;28.90;22.10;;;3.90;99.90;;;;;;5093273;28;20416;-76
2022/12/06 00:08:46;;;;;;;28.97;21.00;;;3.90;99.90;;;;;;5091653;28;20437;-76
2022/12/06 00:11:16;;;;;;;30.10;21.70;;;4.00;99.90;;;;;;5092904;28;20878;-77
2022/12/06 00:13:45;;;;;;;27.87;21.30;;;4.00;99.90;;;;;;5091517;28;20517;-76
2022/12/06 00:16:17;;;;;;;28.40;21.80;;;4.00;99.90;;;;;;5092730;28;20467;-77
2022/12/06 00:18:46;;;;;;;30.77;21.30;;;4.00;99.90;;;;;;5093011;28;20529;-77
2022/12/06 00:21:17;;;;;;;29.20;20.00;;;4.10;99.90;;;;;;5091521;28;20452;-77
2022/12/06 00:23:47;;;;;;;29.70;19.90;;;4.10;99.90;;;;;;5095305;28;20498;-77
2022/12/06 00:26:15;;;;;;;30.20;18.97;;;4.10;99.90;;;;;;5095090;28;20452;-77
2022/12/06 00:28:44;;;;;;;26.43;18.93;;;4.10;99.90;;;;;;5096272;28;20998;-77
2022/12/06 00:31:17;;;;;;;24.40;15.90;;;4.20;99.90;;;;;;5096236;28;20933;-78
2022/12/06 00:33:46;;;;;;;22.60;14.77;;;4.20;99.90;;;;;;5097450;28;20792;-77
2022/12/06 00:36:15;;;;;;;18.20;12.97;;;4.20;99.90;;;;;;5095852;28;20879;-77
2022/12/06 00:38:44;;;;;;;21.40;14.40;;;4.30;99.90;;;;;;5097419;28;20455;-77
2022/12/06 00:41:14;;;;;;;17.73;13.37;;;4.30;99.90;;;;;;5094853;28;20543;-77
2022/12/06 00:43:43;;;;;;;18.80;13.63;;;4.30;99.90;;;;;;5094736;28;20562;-77
2022/12/06 00:46:14;;;;;;;17.97;12.90;;;4.30;99.90;;;;;;5096246;28;20428;-77
2022/12/06 00:48:44;;;;;;;20.77;13.60;;;4.30;99.90;;;;;;5096503;28;20420;-77
2022/12/06 00:51:13;;;;;;;18.40;12.97;;;4.40;99.90;;;;;;5095815;28;20431;-77
2022/12/06 00:53:41;;;;;;;19.67;14.17;;;4.40;99.90;;;;;;5094474;28;20468;-77
2022/12/06 00:56:10;;;;;;;19.47;13.07;;;4.40;99.90;;;;;;5095646;28;20432;-77
2022/12/06 00:58:38;;;;;;;20.50;14.27;;;4.40;99.90;;;;;;5095687;28;20481;-76
2022/12/06 01:01:10;;;;;;;20.93;14.23;;;4.40;99.90;;;;;;5094363;28;20463;-77
2022/12/06 01:03:38;;;;;;;18.77;13.97;;;4.50;99.90;;;;;;5094369;28;20518;-76
2022/12/06 01:06:10;;;;;;;19.70;13.90;;;4.50;99.90;;;;;;5094357;28;20468;-77
2022/12/06 01:08:39;;;;;;;19.83;14.23;;;4.50;99.90;;;;;;5095554;28;20420;-77
2022/12/06 01:11:08;;;;;;;20.97;14.77;;;4.50;99.90;;;;;;5094256;28;20832;-77
2022/12/06 01:13:36;;;;;;;22.97;15.70;;;4.50;99.90;;;;;;5096386;28;20501;-77
2022/12/06 01:16:06;;;;;;;22.23;14.63;;;4.50;99.90;;;;;;5094093;28;20451;-76
2022/12/06 01:18:34;;;;;;;19.97;15.50;;;4.50;99.90;;;;;;5093992;28;20450;-77
2022/12/06 01:21:09;;;;;;;22.33;15.47;;;4.50;99.90;;;;;;5093972;28;20521;-77
2022/12/06 01:23:38;;;;;;;23.00;15.20;;;4.50;99.90;;;;;;5093956;28;20463;-77
2022/12/06 01:26:07;;;;;;;19.57;14.63;;;4.50;99.90;;;;;;5093935;28;20489;-77
2022/12/06 01:28:35;;;;;;;25.50;17.83;;;4.50;99.90;;;;;;5093887;28;20443;-77
2022/12/06 01:31:07;;;;;;;19.70;14.27;;;4.60;99.90;;;;;;5095109;28;20466;-77
2022/12/06 01:33:35;;;;;;;27.03;17.43;;;4.60;99.90;;;;;;5095025;28;20585;-77
2022/12/06 01:36:04;;;;;;;24.80;16.83;;;4.60;99.90;;;;;;5093569;28;20440;-77
2022/12/06 01:38:34;;;;;;;26.40;17.57;;;4.60;99.90;;;;;;5093578;28;20464;-77
2022/12/06 01:41:02;;;;;;;23.00;16.90;;;4.60;99.90;;;;;;5093679;28;20439;-77
2022/12/06 01:43:32;;;;;;;20.63;14.87;;;4.60;99.90;;;;;;5093701;28;20880;-77
2022/12/06 01:46:04;;;;;;;25.80;16.00;;;4.60;99.90;;;;;;5094802;28;20428;-77
2022/12/06 01:48:34;;;;;;;27.17;17.20;;;4.50;99.90;;;;;;5095375;28;20421;-77
2022/12/06 01:51:05;;;;;;;22.57;16.43;;;4.60;99.90;;;;;;5093445;28;20534;-78
2022/12/06 01:53:35;;;;;;;31.57;18.10;;;4.60;99.90;;;;;;5093499;28;20766;-77
2022/12/06 01:56:04;;;;;;;23.30;15.90;;;4.60;99.90;;;;;;5094928;28;20424;-77
2022/12/06 01:58:36;;;;;;;27.03;16.83;;;4.60;99.90;;;;;;5094441;28;20468;-77
2022/12/06 02:01:05;;;;;;;23.27;15.67;;;4.60;99.90;;;;;;5096816;28;20452;-77
2022/12/06 02:03:34;;;;;;;27.97;18.20;;;4.60;99.90;;;;;;5099081;28;20451;-76
2022/12/06 02:06:04;;;;;;;24.83;17.20;;;4.60;99.90;;;;;;5095445;28;20552;-77
2022/12/06 02:08:34;;;;;;;26.07;17.93;;;4.60;99.90;;;;;;5093971;28;20527;-77
2022/12/06 02:11:03;;;;;;;25.73;17.57;;;4.60;99.90;;;;;;5093404;28;20451;-77
2022/12/06 02:13:33;;;;;;;26.67;17.10;;;4.60;99.90;;;;;;5094656;28;20440;-77
2022/12/06 02:16:13;;;;;;;28.90;17.77;;;4.60;99.90;;;;;;5092994;28;20969;-76
2022/12/06 02:18:48;;;;;;;27.17;16.90;;;4.70;99.90;;;;;;5092901;28;20556;-77
2022/12/06 02:21:25;;;;;;;32.23;18.77;;;4.70;99.90;;;;;;5092893;28;20440;-77
2022/12/06 02:24:20;;;;;;;27.87;18.57;;;4.70;99.90;;;;;;5092965;28;20471;-77
2022/12/06 02:26:50;;;;;;;28.30;17.23;;;4.70;99.90;;;;;;5092826;28;20458;-77
2022/12/06 02:29:48;;;;;;;29.30;17.10;;;4.70;99.90;;;;;;5092769;28;20466;-77
2022/12/06 02:32:21;;;;;;;28.00;18.23;;;4.70;99.90;;;;;;5092701;28;20849;-77
2022/12/06 02:34:55;;;;;;;25.77;15.97;;;4.70;99.90;;;;;;5094635;28;20462;-78
2022/12/06 02:37:29;;;;;;;29.30;16.93;;;4.70;99.90;;;;;;5097568;28;20475;-78
2022/12/06 02:40:02;;;;;;;25.73;16.87;;;4.70;99.90;;;;;;5097238;28;20824;-78
2022/12/06 02:42:36;;;;;;;28.27;16.20;;;4.70;99.90;;;;;;5093439;28;20444;-78
2022/12/06 02:45:11;;;;;;;24.13;17.20;;;4.70;99.90;;;;;;5096277;28;20523;-77
2022/12/06 02:47:41;;;;;;;23.63;15.93;;;4.70;99.90;;;;;;5095062;28;20421;-78
2022/12/06 02:50:16;;;;;;;26.37;16.07;;;4.70;99.90;;;;;;5093280;28;20493;-77
2022/12/06 02:52:48;;;;;;;28.50;16.37;;;4.70;99.90;;;;;;5093104;28;20488;-78
2022/12/06 02:55:18;;;;;;;26.53;17.87;;;4.70;99.90;;;;;;5095654;28;20483;-77
2022/12/06 02:57:48;;;;;;;23.60;15.53;;;4.70;99.90;;;;;;5092949;28;21007;-77
2022/12/06 03:00:38;;;;;;;24.43;16.43;;;4.70;99.90;;;;;;5094053;28;20836;-77
2022/12/06 03:03:31;;;;;;;25.30;16.70;;;4.70;99.90;;;;;;5092549;28;20440;-77
2022/12/06 03:06:29;;;;;;;25.07;16.23;;;4.70;99.90;;;;;;5092535;28;20451;-77
2022/12/06 03:09:09;;;;;;;30.03;18.73;;;4.70;99.90;;;;;;5093511;28;20941;-77
2022/12/06 03:11:49;;;;;;;26.90;16.87;;;4.70;99.90;;;;;;5092313;28;20432;-77
2022/12/06 03:14:22;;;;;;;28.67;16.60;;;4.70;99.90;;;;;;5093750;28;20452;-77
2022/12/06 03:16:55;;;;;;;27.60;17.60;;;4.70;99.90;;;;;;5092251;28;20437;-77
2022/12/06 03:19:28;;;;;;;26.60;17.73;;;4.70;99.90;;;;;;5093689;28;20521;-77
2022/12/06 03:22:03;;;;;;;25.67;17.30;;;4.70;99.90;;;;;;5092156;28;20456;-77
2022/12/06 03:24:34;;;;;;;22.33;14.93;;;4.70;99.90;;;;;;5093622;28;20795;-77
2022/12/06 03:27:05;;;;;;;27.47;17.40;;;4.70;99.90;;;;;;5093613;28;20427;-77
2022/12/06 03:29:36;;;;;;;24.80;16.77;;;4.70;99.90;;;;;;5093594;28;20819;-77
2022/12/06 03:32:07;;;;;;;25.13;17.27;;;4.70;99.90;;;;;;5093279;28;20412;-77
2022/12/06 03:34:39;;;;;;;27.00;18.40;;;4.70;99.90;;;;;;5093574;28;20466;-77
2022/12/06 03:37:12;;;;;;;26.27;17.97;;;4.70;99.90;;;;;;5092049;28;20452;-77
2022/12/06 03:39:47;;;;;;;27.07;17.73;;;4.70;99.90;;;;;;5093489;28;20413;-77
2022/12/06 03:42:16;;;;;;;26.50;17.87;;;4.70;99.90;;;;;;5091850;28;20448;-77
2022/12/06 03:44:44;;;;;;;24.03;15.93;;;4.70;99.90;;;;;;5094647;28;20513;-76
2022/12/06 03:47:17;;;;;;;26.83;18.27;;;4.70;99.90;;;;;;5091859;28;20640;-77
2022/12/06 03:49:52;;;;;;;33.00;19.70;;;4.70;99.90;;;;;;5091843;28;20455;-77
2022/12/06 03:52:22;;;;;;;28.83;17.33;;;4.70;99.90;;;;;;5093387;28;20787;-77
2022/12/06 03:54:50;;;;;;;35.33;19.40;;;4.70;99.90;;;;;;5091749;28;21023;-77
2022/12/06 03:57:18;;;;;;;30.77;18.37;;;4.70;99.90;;;;;;5093800;28;20807;-77
2022/12/06 03:59:46;;;;;;;28.20;18.30;;;4.70;99.90;;;;;;5093396;28;20476;-77
2022/12/06 04:02:15;;;;;;;30.20;18.30;;;4.70;99.90;;;;;;5096874;28;20445;-77
2022/12/06 04:04:43;;;;;;;27.53;17.90;;;4.80;99.90;;;;;;5095467;28;20702;-77
2022/12/06 04:07:12;;;;;;;29.80;18.20;;;4.70;99.90;;;;;;5096735;28;20459;-77
2022/12/06 04:09:55;;;;;;;30.87;19.17;;;4.70;99.90;;;;;;5096587;28;20960;-77
2022/12/06 04:15:10;;;;;;;26.80;17.40;;;4.80;99.90;;;;;;5095461;28;20503;-77
2022/12/06 04:20:24;;;;;;;27.43;17.27;;;4.70;99.90;;;;;;5095264;28;20432;-77
2022/12/06 04:23:05;;;;;;;28.07;17.47;;;4.70;99.90;;;;;;5095281;28;20440;-77
2022/12/06 04:25:33;;;;;;;22.37;16.37;;;4.70;99.90;;;;;;5095122;28;20472;-77
2022/12/06 04:39:06;;;;;;;24.70;17.87;;;4.70;99.90;;;;;;5094758;28;20470;-77
2022/12/06 04:44:20;;;;;;;22.63;14.80;;;4.70;99.90;;;;;;5096131;28;20452;-77
2022/12/06 04:46:48;;;;;;;23.23;16.37;;;4.70;99.90;;;;;;5094705;28;20436;-77
2022/12/06 04:49:16;;;;;;;22.63;16.20;;;4.70;99.90;;;;;;5096205;28;20859;-77
2022/12/06 04:51:44;;;;;;;24.00;17.30;;;4.70;99.90;;;;;;5096647;28;20501;-77
2022/12/06 04:54:13;;;;;;;25.87;18.87;;;4.70;99.90;;;;;;5094508;28;20464;-77
2022/12/06 04:56:41;;;;;;;21.13;15.13;;;4.70;99.90;;;;;;5095844;28;20444;-77
2022/12/06 04:59:09;;;;;;;23.20;16.70;;;4.70;99.90;;;;;;5095762;28;20490;-78
2022/12/06 05:01:37;;;;;;;24.10;17.70;;;4.70;99.90;;;;;;5095723;28;20413;-77
2022/12/06 05:04:06;;;;;;;26.20;17.50;;;4.60;99.90;;;;;;5095870;28;20464;-77
2022/12/06 05:06:34;;;;;;;25.73;17.83;;;4.60;99.90;;;;;;5094337;28;20933;-77
2022/12/06 05:09:02;;;;;;;26.37;18.47;;;4.70;99.90;;;;;;5095559;28;20464;-77
2022/12/06 05:11:31;;;;;;;25.30;17.90;;;4.60;99.90;;;;;;5093750;28;20443;-77
2022/12/06 05:14:00;;;;;;;23.70;17.50;;;4.60;99.90;;;;;;5095390;28;20466;-77
2022/12/06 05:16:28;;;;;;;28.90;18.53;;;4.60;99.90;;;;;;5095407;28;20956;-77
2022/12/06 05:18:56;;;;;;;27.67;17.97;;;4.60;99.90;;;;;;5095253;28;20495;-77
2022/12/06 05:21:25;;;;;;;24.13;18.20;;;4.60;99.90;;;;;;5095559;28;20429;-77
2022/12/06 05:23:54;;;;;;;23.60;17.10;;;4.60;99.90;;;;;;5096804;28;21047;-77
2022/12/06 05:26:24;;;;;;;27.13;18.13;;;4.60;99.90;;;;;;5095482;28;20437;-77
2022/12/06 05:28:54;;;;;;;26.90;18.20;;;4.60;99.90;;;;;;5107179;28;20448;-76
2022/12/06 05:31:22;;;;;;;24.17;18.30;;;4.60;99.90;;;;;;5114524;28;20450;-77
2022/12/06 05:33:50;;;;;;;27.40;17.87;;;4.60;99.90;;;;;;5115425;28;20462;-77
2022/12/06 05:36:23;;;;;;;23.60;17.17;;;4.60;99.90;;;;;;5115389;28;20999;-77
2022/12/06 05:38:52;;;;;;;22.37;16.40;;;4.60;99.90;;;;;;5115602;28;20542;-77
2022/12/06 05:41:22;;;;;;;22.63;17.63;;;4.60;99.90;;;;;;5114158;28;20440;-78
2022/12/06 05:43:50;;;;;;;23.00;17.80;;;4.60;99.90;;;;;;5113933;28;20494;-78
2022/12/06 05:46:20;;;;;;;22.97;17.80;;;4.50;99.90;;;;;;5115174;28;20479;-78
2022/12/06 05:48:48;;;;;;;24.80;17.20;;;4.60;99.90;;;;;;5113749;28;20854;-78
2022/12/06 05:51:16;;;;;;;26.33;17.63;;;4.60;99.90;;;;;;5115165;28;20500;-77
2022/12/06 05:53:44;;;;;;;19.67;15.80;;;4.60;99.90;;;;;;5120403;28;20459;-77
2022/12/06 05:56:13;;;;;;;26.43;16.93;;;4.60;99.90;;;;;;5116758;28;20932;-78
2022/12/06 05:58:41;;;;;;;24.47;16.20;;;4.60;99.90;;;;;;5116046;28;20979;-78
2022/12/06 06:01:09;;;;;;;24.27;17.97;;;4.60;99.90;;;;;;5117212;28;20449;-78
2022/12/06 06:03:39;;;;;;;20.33;15.40;;;4.50;99.90;;;;;;5117608;28;20504;-79
2022/12/06 06:06:14;;;;;;;22.87;16.40;;;4.50;99.90;;;;;;5120636;28;20435;-79
2022/12/06 06:08:43;;;;;;;23.37;16.60;;;4.50;99.90;;;;;;5121120;28;20445;-79
2022/12/06 06:11:11;;;;;;;22.57;15.73;;;4.50;99.90;;;;;;5118517;28;20455;-79
2022/12/06 06:13:39;;;;;;;21.00;14.80;;;4.50;99.90;;;;;;5118672;28;20467;-79
2022/12/06 06:16:07;;;;;;;20.60;14.57;;;4.60;99.90;;;;;;5120748;28;20457;-79
2022/12/06 06:18:36;;;;;;;22.63;16.17;;;4.50;99.90;;;;;;5104448;28;20452;-77
2022/12/06 06:21:05;;;;;;;21.00;15.33;;;4.50;99.90;;;;;;5094646;28;20436;-78
2022/12/06 06:23:34;;;;;;;22.03;15.20;;;4.50;99.90;;;;;;5093748;28;20456;-78
2022/12/06 06:26:07;;;;;;;21.10;15.50;;;4.50;99.90;;;;;;5094918;28;20475;-78
2022/12/06 06:28:35;;;;;;;20.07;15.33;;;4.50;99.90;;;;;;5093411;28;20843;-79
2022/12/06 06:31:04;;;;;;;21.53;14.37;;;4.50;99.90;;;;;;5092922;28;20798;-78
2022/12/06 06:33:34;;;;;;;21.33;15.90;;;4.50;99.90;;;;;;5093029;28;20824;-78
2022/12/06 06:36:02;;;;;;;20.37;14.97;;;4.50;99.90;;;;;;5093268;28;20440;-79
2022/12/06 06:38:31;;;;;;;21.03;14.53;;;4.50;99.90;;;;;;5092726;28;20444;-78
2022/12/06 06:41:02;;;;;;;21.03;14.93;;;4.50;99.90;;;;;;5094065;28;20830;-78
2022/12/06 06:43:30;;;;;;;20.53;15.47;;;4.50;99.90;;;;;;5092987;28;20501;-78
2022/12/06 06:46:00;;;;;;;21.47;14.40;;;4.50;99.90;;;;;;5094791;28;20444;-78
2022/12/06 06:48:31;;;;;;;20.80;15.63;;;4.50;99.90;;;;;;5092928;28;20797;-78
2022/12/06 06:51:02;;;;;;;21.60;15.20;;;4.50;99.90;;;;;;5094020;28;20421;-79
2022/12/06 06:53:31;;;;;;;19.53;14.70;;;4.50;99.90;;;;;;5094404;28;20490;-79
2022/12/06 06:56:00;;;;;;;21.53;15.57;;;4.50;99.90;;;;;;5096442;28;20451;-79
2022/12/06 06:58:28;;;;;;;22.70;14.77;;;4.50;99.90;;;;;;5096807;28;20785;-79
2022/12/06 07:00:58;;;;;;;22.40;15.20;;;4.50;99.90;;;;;;5094987;28;21054;-79
2022/12/06 07:03:27;;;;;;;19.93;14.03;;;4.50;99.90;;;;;;5095341;28;20482;-79
2022/12/06 07:05:57;;;;;;;20.50;15.50;;;4.50;99.90;;;;;;5096083;28;20485;-79
2022/12/06 07:08:27;;;;;;;24.97;15.50;;;4.50;99.90;;;;;;5101070;28;20494;-78
2022/12/06 07:10:57;;;;;;;19.90;14.27;;;4.40;99.90;;;;;;5114962;28;20443;-79
2022/12/06 07:13:26;;;;;;;21.43;14.80;;;4.40;99.90;;;;;;5116220;28;20860;-79
2022/12/06 07:15:54;;;;;;;21.87;16.10;;;4.40;99.90;;;;;;5113368;28;20435;-78
2022/12/06 07:18:23;;;;;;;19.33;13.63;;;4.40;99.90;;;;;;5113784;28;20546;-79
2022/12/06 07:20:59;;;;;;;19.70;14.33;;;4.40;99.90;;;;;;5108600;28;20464;-77
2022/12/06 07:23:27;;;;;;;20.60;14.30;;;4.40;99.90;;;;;;5114512;28;20419;-78
2022/12/06 07:26:05;;;;;;;20.03;14.30;;;4.40;99.90;;;;;;5114056;28;20443;-78
2022/12/06 07:28:37;;;;;;;19.10;14.23;;;4.40;99.90;;;;;;5115287;28;20431;-78
2022/12/06 07:31:10;;;;;;;21.43;15.60;;;4.40;99.90;;;;;;5116680;28;20430;-78
2022/12/06 07:33:38;;;;;;;20.87;14.70;;;4.40;99.90;;;;;;5117331;28;20501;-78
2022/12/06 07:36:10;;;;;;;21.77;16.07;;;4.40;99.90;;;;;;5118836;28;20952;-78
2022/12/06 07:38:42;;;;;;;20.03;14.20;;;4.30;99.90;;;;;;5121747;28;20439;-78
2022/12/06 07:46:46;;;;;;;21.47;15.60;;;4.30;99.90;;;;;;5122001;28;20415;-79
2022/12/06 07:49:15;;;;;;;22.07;16.97;;;4.30;99.90;;;;;;5122051;28;20468;-79
2022/12/06 07:51:44;;;;;;;22.50;16.03;;;4.30;99.90;;;;;;5120147;28;20462;-78
2022/12/06 07:54:13;;;;;;;21.67;16.40;;;4.30;99.90;;;;;;5120722;28;20467;-79
2022/12/06 07:56:46;;;;;;;22.57;15.53;;;4.30;99.90;;;;;;5121501;28;20447;-79
2022/12/06 07:59:15;;;;;;;20.30;15.53;;;4.30;99.90;;;;;;5124308;28;20447;-79
2022/12/06 08:01:43;;;;;;;22.93;15.90;;;4.30;99.90;;;;;;5124530;28;20470;-79
2022/12/06 08:04:12;;;;;;;21.97;14.67;;;4.30;99.90;;;;;;5124195;28;20457;-78
2022/12/06 08:06:42;;;;;;;21.63;15.07;;;4.30;99.90;;;;;;5123469;28;20487;-80
2022/12/06 08:09:12;;;;;;;19.60;14.47;;;4.30;99.90;;;;;;5123826;28;20443;-79
2022/12/06 08:11:40;;;;;;;19.00;14.73;;;4.30;99.90;;;;;;5110334;28;20440;-78
2022/12/06 08:14:11;;;;;;;18.80;14.90;;;4.30;99.90;;;;;;5101869;28;20467;-79
2022/12/06 08:16:40;;;;;;;20.10;15.33;;;4.20;99.90;;;;;;5104514;28;20481;-79
2022/12/06 08:19:10;;;;;;;19.60;14.10;;;4.30;99.90;;;;;;5104047;28;20432;-78
2022/12/06 08:21:40;;;;;;;20.90;13.90;;;4.20;99.90;;;;;;5096114;28;20508;-78
2022/12/06 08:24:08;;;;;;;19.40;13.40;;;4.30;99.90;;;;;;5095202;28;20476;-78
2022/12/06 08:26:37;;;;;;;19.87;13.97;;;4.30;99.90;;;;;;5095259;28;21012;-78
2022/12/06 08:29:05;;;;;;;19.87;13.80;;;4.20;99.90;;;;;;5095257;28;20510;-78
2022/12/06 08:31:35;;;;;;;18.60;13.97;;;4.30;99.90;;;;;;5095128;28;20455;-78
2022/12/06 08:34:04;;;;;;;17.03;13.43;;;4.30;99.90;;;;;;5095231;28;21075;-78
2022/12/06 08:36:32;;;;;;;17.23;13.73;;;4.30;99.90;;;;;;5096815;28;20486;-78
2022/12/06 08:39:01;;;;;;;18.97;13.73;;;4.30;99.90;;;;;;5096274;28;20435;-78
2022/12/06 08:44:16;;;;;;;17.10;13.40;;;4.30;99.90;;;;;;5096028;28;20530;-78
2022/12/06 08:46:46;;;;;;;19.80;14.03;;;4.30;99.90;;;;;;5095885;28;20448;-78
2022/12/06 08:49:16;;;;;;;22.23;13.57;;;4.30;99.90;;;;;;5096284;28;20416;-78
2022/12/06 08:51:45;;;;;;;22.63;15.00;;;4.30;99.90;;;;;;5094789;28;20444;-78
2022/12/06 08:54:16;;;;;;;19.33;13.23;;;4.30;99.90;;;;;;5096117;28;20850;-78
2022/12/06 08:56:44;;;;;;;18.97;13.20;;;4.30;99.90;;;;;;5094648;28;20451;-78
2022/12/06 08:59:13;;;;;;;17.63;13.43;;;4.30;99.90;;;;;;5095534;28;20509;-78
2022/12/06 09:01:41;;;;;;;20.13;14.00;;;4.30;99.90;;;;;;5096791;28;20464;-78
2022/12/06 09:04:11;;;;;;;19.17;13.50;;;4.40;99.90;;;;;;5094535;28;20542;-78
2022/12/06 09:06:41;;;;;;;20.67;13.90;;;4.40;99.90;;;;;;5094517;28;20441;-78
2022/12/06 09:09:10;;;;;;;18.20;13.50;;;4.40;99.90;;;;;;5094252;28;20914;-78
2022/12/06 09:11:39;;;;;;;17.23;13.33;;;4.40;99.90;;;;;;5094342;28;20452;-78
2022/12/06 09:14:10;;;;;;;20.20;14.47;;;4.40;99.90;;;;;;5094238;28;20467;-78
2022/12/06 09:16:44;;;;;;;21.20;14.33;;;4.40;99.90;;;;;;5095486;28;20893;-78
2022/12/06 09:19:14;;;;;;;17.90;13.43;;;4.50;99.90;;;;;;5094154;28;20461;-78
2022/12/06 09:21:43;;;;;;;20.17;14.43;;;4.50;99.90;;;;;;5094341;28;20468;-78
2022/12/06 09:24:13;;;;;;;19.37;14.70;;;4.50;99.90;;;;;;5095215;28;20455;-78
2022/12/06 09:26:41;;;;;;;19.23;14.30;;;4.50;99.90;;;;;;5095222;28;20447;-78
2022/12/06 09:29:10;;;;;;;18.60;13.10;;;4.50;99.90;;;;;;5094196;28;20447;-78
2022/12/06 09:31:39;;;;;;;18.60;14.10;;;4.50;99.90;;;;;;5098179;28;20991;-78
2022/12/06 09:34:08;;;;;;;18.83;13.47;;;4.50;99.90;;;;;;5097733;28;20444;-78
2022/12/06 09:36:42;;;;;;;21.27;14.80;;;4.50;99.90;;;;;;5095551;28;20506;-78
2022/12/06 09:39:12;;;;;;;17.33;13.47;;;4.40;99.90;;;;;;5095736;28;20824;-78
2022/12/06 09:42:09;;;;;;;17.70;13.90;;;4.50;99.90;;;;;;5093859;28;20464;-78
2022/12/06 09:45:05;;;;;;;16.60;12.97;;;4.50;99.90;;;;;;5081853;28;20521;-78
2022/12/06 09:47:48;;;;;;;16.27;11.93;;;4.60;99.90;;;;;;5094956;28;20423;-78
2022/12/06 09:50:28;;;;;;;16.60;13.00;;;4.50;99.90;;;;;;5094155;28;20440;-78
2022/12/06 09:53:14;;;;;;;16.10;12.70;;;4.50;99.90;;;;;;5093529;28;20556;-78
2022/12/06 09:55:56;;;;;;;17.63;13.53;;;4.50;99.90;;;;;;5093416;28;20437;-78
2022/12/06 09:58:41;;;;;;;15.60;11.93;;;4.50;99.90;;;;;;5093435;28;20941;-78
2022/12/06 10:01:19;;;;;;;15.93;12.23;;;4.50;99.90;;;;;;5093345;28;20460;-78
2022/12/06 10:04:13;;;;;;;14.20;11.23;;;4.50;99.90;;;;;;5093314;28;20468;-78
2022/12/06 10:06:50;;;;;;;16.97;12.70;;;4.50;99.90;;;;;;5094587;28;20444;-78
2022/12/06 10:09:32;;;;;;;14.90;10.90;;;4.50;99.90;;;;;;5093134;28;20441;-78
2022/12/06 10:12:15;;;;;;;15.13;11.33;;;4.50;99.90;;;;;;5094480;28;20424;-78
2022/12/06 10:15:04;;;;;;;13.57;10.67;;;4.50;99.90;;;;;;5093128;28;20471;-78
2022/12/06 10:17:42;;;;;;;16.33;11.57;;;4.60;99.90;;;;;;5093419;28;20448;-78
2022/12/06 10:20:22;;;;;;;16.20;10.97;;;4.60;99.90;;;;;;5096615;28;20497;-79
2022/12/06 10:23:02;;;;;;;13.47;11.17;;;4.60;99.90;;;;;;5095651;28;20460;-79
2022/12/06 10:25:40;;;;;;;14.43;10.23;;;4.60;99.90;;;;;;5093523;28;20467;-78
2022/12/06 10:28:12;;;;;;;14.90;10.37;;;4.60;99.90;;;;;;5095096;28;20444;-78
2022/12/06 10:30:46;;;;;;;14.07;10.37;;;4.60;99.90;;;;;;5094488;28;20443;-78
2022/12/06 10:33:22;;;;;;;14.50;10.43;;;4.60;99.90;;;;;;5095093;28;20425;-78
2022/12/06 10:35:55;;;;;;;12.87;10.23;;;4.70;99.90;;;;;;5093640;28;20440;-78
2022/12/06 10:38:29;;;;;;;14.13;10.90;;;4.70;99.90;;;;;;5095082;28;20421;-78
2022/12/06 10:41:09;;;;;;;13.93;10.13;;;4.70;99.90;;;;;;5096359;28;20452;-78
2022/12/06 10:43:47;;;;;;;15.30;12.13;;;4.70;99.90;;;;;;5093746;28;20555;-78
2022/12/06 10:49:19;;;;;;;14.20;11.20;;;4.80;99.90;;;;;;5092890;28;20444;-78
2022/12/06 10:51:53;;;;;;;14.00;10.90;;;4.80;99.90;;;;;;5093747;28;20981;-78
2022/12/06 10:54:27;;;;;;;12.07;10.77;;;4.80;99.90;;;;;;5092462;28;21000;-78
2022/12/06 10:57:02;;;;;;;13.40;10.83;;;4.80;99.90;;;;;;5092453;28;20454;-78
2022/12/06 10:59:36;;;;;;;12.03;10.20;;;4.90;99.90;;;;;;5093524;28;20461;-78
2022/12/06 11:02:20;;;;;;;13.07;11.67;;;4.90;99.90;;;;;;5092297;28;20494;-78
2022/12/06 11:04:50;;;;;;;13.87;11.33;;;4.90;99.90;;;;;;5094125;28;20551;-78
2022/12/06 11:07:23;;;;;;;11.80;10.60;;;4.90;99.90;;;;;;5093708;28;20447;-78
2022/12/06 11:09:54;;;;;;;14.53;10.40;;;4.90;99.90;;;;;;5093702;28;20409;-78
2022/12/06 11:12:29;;;;;;;11.80;10.30;;;4.90;99.90;;;;;;5092234;28;20444;-78
2022/12/06 11:15:06;;;;;;;12.13;10.83;;;4.90;99.90;;;;;;5102244;28;20462;-80
2022/12/06 11:17:40;;;;;;;12.07;9.70;;;5.00;99.90;;;;;;5104595;28;20478;-80
2022/12/06 11:20:22;;;;;;;11.70;9.90;;;5.00;99.90;;;;;;5092284;28;20440;-78
2022/12/06 11:23:04;;;;;;;14.00;10.07;;;5.00;99.90;;;;;;5093724;28;20780;-78
2022/12/06 11:25:41;;;;;;;10.23;9.23;;;5.00;99.90;;;;;;5093206;28;20468;-78
2022/12/06 11:28:25;;;;;;;12.60;9.73;;;5.00;99.90;;;;;;5093697;28;20424;-78
2022/12/06 11:30:55;;;;;;;11.53;8.63;;;5.00;99.90;;;;;;5095927;28;20456;-78
2022/12/06 11:33:29;;;;;;;12.60;8.40;;;5.00;99.90;;;;;;5091916;28;20822;-78
2022/12/06 11:36:01;;;;;;;10.30;8.67;;;5.00;99.90;;;;;;5093291;28;20417;-78
2022/12/06 11:38:29;;;;;;;8.87;7.80;;;5.00;99.90;;;;;;5092283;28;20452;-77
2022/12/06 11:40:58;;;;;;;10.27;8.30;;;5.10;99.90;;;;;;5092626;28;20493;-78
2022/12/06 11:43:41;;;;;;;10.10;8.50;;;5.10;99.90;;;;;;5095531;28;20830;-78
2022/12/06 11:46:15;;;;;;;8.53;7.30;;;5.10;99.90;;;;;;5105223;28;20838;-78
2022/12/06 11:48:44;;;;;;;8.10;6.80;;;5.10;99.90;;;;;;5121420;28;20443;-78
2022/12/06 11:51:18;;;;;;;7.97;7.17;;;5.10;99.90;;;;;;5120909;28;20863;-78
2022/12/06 11:54:00;;;;;;;7.53;6.57;;;5.20;99.90;;;;;;5116182;28;20876;-77
2022/12/06 11:56:31;;;;;;;7.67;6.87;;;5.20;99.90;;;;;;5112796;28;20432;-77
2022/12/06 11:59:08;;;;;;;8.33;6.60;;;5.20;99.90;;;;;;5114300;28;20450;-77
2022/12/06 12:01:39;;;;;;;9.80;7.63;;;5.20;99.90;;;;;;5113813;28;20810;-77
2022/12/06 12:04:32;;;;;;;7.73;6.07;;;5.20;99.90;;;;;;5114059;28;20486;-77
2022/12/06 12:07:04;;;;;;;8.67;6.20;;;5.20;99.90;;;;;;5113305;28;20836;-77
2022/12/06 12:09:36;;;;;;;6.67;6.03;;;5.20;99.90;;;;;;5112259;28;20439;-77
2022/12/06 12:12:12;;;;;;;7.47;5.40;;;5.20;99.90;;;;;;5113817;28;20415;-77
2022/12/06 12:14:43;;;;;;;8.20;5.60;;;5.20;99.90;;;;;;5113430;28;20458;-77
2022/12/06 12:17:20;;;;;;;5.77;5.10;;;5.30;99.90;;;;;;5112025;28;20935;-77
2022/12/06 12:19:51;;;;;;;8.73;5.50;;;5.30;99.90;;;;;;5113849;28;20421;-77
2022/12/06 12:22:25;;;;;;;6.07;5.20;;;5.30;99.90;;;;;;5115827;28;20846;-77
2022/12/06 12:24:56;;;;;;;6.33;5.73;;;5.30;99.90;;;;;;5115943;28;20842;-77
2022/12/06 12:27:48;;;;;;;6.30;5.50;;;5.30;99.90;;;;;;5115619;28;20454;-77
2022/12/06 12:30:21;;;;;;;6.00;5.13;;;5.30;99.90;;;;;;5115938;28;20439;-77
2022/12/06 12:32:51;;;;;;;5.27;4.37;;;5.30;99.90;;;;;;5117564;28;20432;-77
2022/12/06 12:35:27;;;;;;;5.93;5.30;;;5.30;99.90;;;;;;5123073;28;20494;-80
2022/12/06 12:37:59;;;;;;;6.30;4.50;;;5.30;99.90;;;;;;5096152;28;20455;-77
2022/12/06 12:40:34;;;;;;;6.13;5.20;;;5.30;99.90;;;;;;5096193;28;20459;-77
2022/12/06 12:43:05;;;;;;;5.70;5.07;;;5.40;99.90;;;;;;5095328;28;20516;-77
2022/12/06 12:45:35;;;;;;;6.80;5.20;;;5.30;99.90;;;;;;5095318;28;20468;-77
2022/12/06 12:48:20;;;;;;;6.10;4.80;;;5.30;99.90;;;;;;5095464;28;20480;-77
2022/12/06 12:50:53;;;;;;;6.57;5.17;;;5.40;99.90;;;;;;5095929;28;20433;-77
2022/12/06 12:53:29;;;;;;;6.57;5.40;;;5.40;99.90;;;;;;5094948;28;20447;-77
2022/12/06 12:56:07;;;;;;;5.77;5.17;;;5.30;99.90;;;;;;5096379;28;20446;-77
2022/12/06 12:58:35;;;;;;;6.00;4.90;;;5.40;99.90;;;;;;5095072;28;20444;-77
2022/12/06 13:01:10;;;;;;;6.77;5.10;;;5.30;99.90;;;;;;5094871;28;20479;-77
2022/12/06 13:03:39;;;;;;;7.80;5.27;;;5.40;99.90;;;;;;5094730;28;20546;-77
2022/12/06 13:06:28;;;;;;;5.80;5.20;;;5.40;99.90;;;;;;5095711;28;20493;-78
2022/12/06 13:09:03;;;;;;;7.47;5.70;;;5.40;99.90;;;;;;5099224;28;21041;-78
2022/12/06 13:11:38;;;;;;;6.67;5.97;;;5.40;99.90;;;;;;5099693;28;20431;-79
2022/12/06 13:14:34;;;;;;;7.87;5.90;;;5.40;99.90;;;;;;5101197;28;20491;-79
2022/12/06 13:17:08;;;;;;;8.47;5.93;;;5.40;99.90;;;;;;5112728;28;20447;-79
2022/12/06 13:19:40;;;;;;;6.93;6.23;;;5.40;99.90;;;;;;5113648;28;20427;-79
2022/12/06 13:22:16;;;;;;;6.73;5.50;;;5.40;99.90;;;;;;5115002;28;20428;-79
2022/12/06 13:24:47;;;;;;;6.37;5.60;;;5.40;99.90;;;;;;5113450;28;20988;-79
2022/12/06 13:27:18;;;;;;;6.90;6.20;;;5.40;99.90;;;;;;5115464;28;20511;-79
2022/12/06 13:29:53;;;;;;;6.43;5.70;;;5.40;99.90;;;;;;5113605;28;20500;-79
2022/12/06 13:32:38;;;;;;;6.63;5.90;;;5.40;99.90;;;;;;5113499;28;20925;-79
2022/12/06 13:35:17;;;;;;;7.23;6.00;;;5.40;99.90;;;;;;5112431;28;20470;-78
2022/12/06 13:37:51;;;;;;;7.07;6.37;;;5.30;99.90;;;;;;5111915;28;20440;-78